Aviation Digital Data Service (ADDS)

Output produced by METARs form (1526 UTC 20 March 2019)
found at http://www.aviationweather.gov/metar/data/
 
Forecast for: ETHN (NIEDERSTETTEN (G, DE)
Text: TAF ETHN 201400Z 2015/2024 09005KT 9999 NSW SCT210
Forecast period: 1500 UTC 20 March 2019 to 0000 UTC 21 March 2019
Forecast type: FROM: standard forecast or significant change
Winds: from the E (90 degrees) at 6 MPH (5 knots; 2.6 m/s)
Visibility: 6 or more miles 10+ km)
Ceiling: at least 12,000 feet AGL
Clouds: scattered clouds at 21000 feet AGL
Weather: NSW  (no significant weather)